createdAt,value
2022-10-24T00:01:23.190Z,63.97
2022-10-24T00:03:51.104Z,64.37
2022-10-24T00:06:19.429Z,64.61
2022-10-24T00:08:47.257Z,65.17
2022-10-24T00:11:23.638Z,65.11
2022-10-24T00:13:52.147Z,64.80
2022-10-24T00:16:19.796Z,64.50
2022-10-24T00:18:47.264Z,64.81
2022-10-24T00:21:14.590Z,64.71
2022-10-24T00:23:42.262Z,64.38
2022-10-24T00:26:10.968Z,64.72
2022-10-24T00:28:38.919Z,64.72
2022-10-24T00:31:07.591Z,64.37
2022-10-24T00:33:34.968Z,64.42
2022-10-24T00:36:02.255Z,64.46
2022-10-24T00:38:29.817Z,64.54
2022-10-24T00:40:57.193Z,64.60
2022-10-24T00:43:26.642Z,64.16
2022-10-24T00:45:59.124Z,65.49
2022-10-24T00:48:37.031Z,65.78
2022-10-24T00:51:21.706Z,64.49
2022-10-24T00:53:51.314Z,64.65
2022-10-24T00:56:21.957Z,64.36
2022-10-24T00:58:50.096Z,65.41
2022-10-24T01:01:17.643Z,64.91
2022-10-24T01:03:45.237Z,65.27
2022-10-24T01:06:32.040Z,64.52
2022-10-24T01:09:18.453Z,65.46
2022-10-24T01:11:50.578Z,65.67
2022-10-24T01:14:28.536Z,65.57
2022-10-24T01:17:14.644Z,65.69
2022-10-24T01:20:03.827Z,65.91
2022-10-24T01:22:43.806Z,65.69
2022-10-24T01:25:38.266Z,65.86
2022-10-24T01:28:15.575Z,65.65
2022-10-24T01:30:49.969Z,65.57
2022-10-24T01:33:23.141Z,65.71
2022-10-24T01:36:01.420Z,65.93
2022-10-24T01:38:34.555Z,65.85
2022-10-24T01:41:08.420Z,66.06
2022-10-24T01:43:43.234Z,65.61
2022-10-24T01:46:19.472Z,65.68
2022-10-24T01:48:55.247Z,65.61
2022-10-24T01:51:25.525Z,65.53
2022-10-24T01:53:53.359Z,65.32
2022-10-24T01:56:20.651Z,64.93
2022-10-24T01:58:48.263Z,64.74
2022-10-24T02:01:19.823Z,64.86
2022-10-24T02:03:52.138Z,64.73
2022-10-24T02:06:21.344Z,64.86
2022-10-24T02:08:53.125Z,64.60
2022-10-24T02:11:20.765Z,64.56
2022-10-24T02:13:56.023Z,64.72
2022-10-24T02:16:23.652Z,65.51
2022-10-24T02:18:52.612Z,65.69
2022-10-24T02:21:32.122Z,64.79
2022-10-24T02:24:21.949Z,65.23
2022-10-24T02:26:54.398Z,65.35
2022-10-24T02:29:28.718Z,65.37
2022-10-24T02:31:57.996Z,66.11
2022-10-24T02:34:29.584Z,65.78
2022-10-24T02:36:58.187Z,65.76
2022-10-24T02:39:26.416Z,65.77
2022-10-24T02:41:54.938Z,66.27
2022-10-24T02:44:23.621Z,65.35
2022-10-24T02:46:53.233Z,65.56
2022-10-24T02:49:20.634Z,64.90
2022-10-24T02:51:48.512Z,65.23
2022-10-24T02:54:16.091Z,65.64
2022-10-24T02:56:49.859Z,64.99
2022-10-24T02:59:17.424Z,65.14
2022-10-24T03:01:44.794Z,65.86
2022-10-24T03:04:12.132Z,65.54
2022-10-24T03:06:39.710Z,65.28
2022-10-24T03:09:07.062Z,65.77
2022-10-24T03:11:34.471Z,65.63
2022-10-24T03:14:02.340Z,66.40
2022-10-24T03:16:29.784Z,66.02
2022-10-24T03:18:57.194Z,65.78
2022-10-24T03:21:24.736Z,66.86
2022-10-24T03:23:52.137Z,66.68
2022-10-24T03:26:19.459Z,66.48
2022-10-24T03:28:47.013Z,67.14
2022-10-24T03:31:14.334Z,67.13
2022-10-24T03:33:41.618Z,66.89
2022-10-24T03:36:09.241Z,66.70
2022-10-24T03:38:36.527Z,66.47
2022-10-24T03:41:05.141Z,66.82
2022-10-24T03:43:32.708Z,65.83
2022-10-24T03:46:00.027Z,65.75
2022-10-24T03:48:27.514Z,65.17
2022-10-24T03:50:55.380Z,65.96
2022-10-24T03:53:22.721Z,65.79
2022-10-24T03:55:50.083Z,65.89
2022-10-24T03:58:17.704Z,65.95
2022-10-24T04:00:45.317Z,66.14
2022-10-24T04:03:12.924Z,65.59
2022-10-24T04:05:40.776Z,65.67
2022-10-24T04:08:08.307Z,64.91
2022-10-24T04:10:36.189Z,65.01
2022-10-24T04:13:03.670Z,65.35
2022-10-24T04:15:31.153Z,65.32
2022-10-24T04:17:58.753Z,65.46
2022-10-24T04:20:26.204Z,65.39
2022-10-24T04:22:53.583Z,64.59
2022-10-24T04:25:21.236Z,64.59
2022-10-24T04:27:48.557Z,64.88
2022-10-24T04:30:16.919Z,65.23
2022-10-24T04:32:45.200Z,65.19
2022-10-24T04:35:14.124Z,65.25
2022-10-24T04:37:41.446Z,65.58
2022-10-24T04:40:09.426Z,65.72
2022-10-24T04:42:36.726Z,64.88
2022-10-24T04:45:04.254Z,64.80
2022-10-24T04:47:31.866Z,65.45
2022-10-24T04:49:59.149Z,65.39
2022-10-24T04:52:26.690Z,65.95
2022-10-24T04:54:54.726Z,66.15
2022-10-24T04:57:22.018Z,66.01
2022-10-24T04:59:49.287Z,65.98
2022-10-24T05:02:17.010Z,65.84
2022-10-24T05:04:44.395Z,65.61
2022-10-24T05:07:11.736Z,65.80
2022-10-24T05:09:39.300Z,66.42
2022-10-24T05:12:06.725Z,65.61
2022-10-24T05:14:34.310Z,65.67
2022-10-24T05:17:02.000Z,65.03
2022-10-24T05:19:29.579Z,65.32
2022-10-24T05:21:56.889Z,64.55
2022-10-24T05:24:24.998Z,65.10
2022-10-24T05:26:52.311Z,65.02
2022-10-24T05:29:19.856Z,64.81
2022-10-24T05:31:47.473Z,64.64
2022-10-24T05:34:14.757Z,64.58
2022-10-24T05:36:42.056Z,64.55
2022-10-24T05:39:09.587Z,64.90
2022-10-24T05:41:36.915Z,64.80
2022-10-24T05:44:04.394Z,64.33
2022-10-24T05:46:31.949Z,64.60
2022-10-24T05:48:59.288Z,64.31
2022-10-24T05:51:27.382Z,64.01
2022-10-24T05:53:54.948Z,64.37
2022-10-24T05:56:22.257Z,63.94
2022-10-24T05:58:49.561Z,64.15
2022-10-24T06:01:17.537Z,63.91
2022-10-24T06:03:45.190Z,63.33
2022-10-24T06:06:12.505Z,63.92
2022-10-24T06:08:39.811Z,64.21
2022-10-24T06:11:10.894Z,63.96
2022-10-24T06:13:38.809Z,63.66
2022-10-24T06:16:06.766Z,64.26
2022-10-24T06:18:34.339Z,64.45
2022-10-24T06:21:02.638Z,64.57
2022-10-24T06:23:30.370Z,64.53
2022-10-24T06:25:58.062Z,64.22
2022-10-24T06:28:25.460Z,64.57
2022-10-24T06:30:54.536Z,64.00
2022-10-24T06:33:22.107Z,64.36
2022-10-24T06:35:49.396Z,64.35
2022-10-24T06:38:16.688Z,64.44
2022-10-24T06:40:44.274Z,64.50
2022-10-24T06:43:11.599Z,64.40
2022-10-24T06:45:57.176Z,64.67
2022-10-24T06:48:24.756Z,65.04
2022-10-24T06:50:52.047Z,65.79
2022-10-24T06:55:51.847Z,68.17
2022-10-24T06:58:19.157Z,66.56
2022-10-24T07:00:46.501Z,65.01
2022-10-24T07:03:15.395Z,64.65
2022-10-24T07:05:42.892Z,65.30
2022-10-24T07:08:10.973Z,65.21
2022-10-24T07:10:38.650Z,65.02
2022-10-24T07:13:06.149Z,65.11
2022-10-24T07:15:33.480Z,65.20
2022-10-24T07:18:01.025Z,65.47
2022-10-24T07:20:28.407Z,65.36
2022-10-24T07:22:55.707Z,64.93
2022-10-24T07:25:23.264Z,65.16
2022-10-24T07:27:52.556Z,64.91
2022-10-24T07:30:19.841Z,64.21
2022-10-24T07:32:48.693Z,63.65
2022-10-24T07:35:16.254Z,63.72
2022-10-24T07:37:43.874Z,65.03
2022-10-24T07:40:12.207Z,64.99
2022-10-24T07:42:39.499Z,65.50
2022-10-24T07:45:07.400Z,65.44
2022-10-24T07:47:34.959Z,65.02
2022-10-24T07:50:02.350Z,65.32
2022-10-24T07:52:29.642Z,66.24
2022-10-24T07:54:58.050Z,65.71
2022-10-24T07:57:32.381Z,65.75
2022-10-24T07:59:59.960Z,65.71
2022-10-24T08:02:27.262Z,65.31
2022-10-24T08:04:54.854Z,65.91
2022-10-24T08:07:22.373Z,65.82
2022-10-24T08:09:51.226Z,65.78
2022-10-24T08:12:19.003Z,65.22
2022-10-24T08:14:46.366Z,65.16
2022-10-24T08:17:13.887Z,65.59
2022-10-24T08:19:43.739Z,65.91
2022-10-24T08:22:12.138Z,65.51
2022-10-24T08:24:39.437Z,65.01
2022-10-24T08:27:06.997Z,65.48
2022-10-24T08:29:34.334Z,65.45
2022-10-24T08:32:01.898Z,65.46
2022-10-24T08:34:29.468Z,64.85
2022-10-24T08:36:56.770Z,63.99
2022-10-24T08:39:24.326Z,64.10
2022-10-24T08:41:59.509Z,64.71
2022-10-24T08:44:30.446Z,65.10
2022-10-24T08:47:29.056Z,65.08
2022-10-24T08:50:23.385Z,65.40
2022-10-24T08:53:11.193Z,65.33
2022-10-24T08:55:55.195Z,65.70
2022-10-24T08:58:42.324Z,65.59
2022-10-24T09:01:27.450Z,65.13
2022-10-24T09:03:56.989Z,64.80
2022-10-24T09:06:27.024Z,64.81
2022-10-24T09:09:00.697Z,65.00
2022-10-24T09:11:49.754Z,64.76
2022-10-24T09:14:22.990Z,65.02
2022-10-24T09:17:13.283Z,64.86
2022-10-24T09:19:41.132Z,64.72
2022-10-24T09:22:11.484Z,64.56
2022-10-24T09:24:58.904Z,64.16
2022-10-24T09:27:34.603Z,64.45
2022-10-24T09:30:02.118Z,64.10
2022-10-24T09:32:31.834Z,64.05
2022-10-24T09:35:15.426Z,63.94
2022-10-24T09:37:47.417Z,63.54
2022-10-24T09:40:19.047Z,63.24
2022-10-24T09:42:52.833Z,63.97
2022-10-24T09:45:39.846Z,64.02
2022-10-24T09:48:17.420Z,63.84
2022-10-24T09:50:46.167Z,63.72
2022-10-24T09:53:32.688Z,64.38
2022-10-24T09:56:03.064Z,63.58
2022-10-24T09:58:35.540Z,64.55
2022-10-24T10:01:07.117Z,64.01
2022-10-24T10:03:35.503Z,64.08
2022-10-24T10:06:14.852Z,63.67
2022-10-24T10:08:49.752Z,64.21
2022-10-24T10:11:30.567Z,64.58
2022-10-24T10:14:01.338Z,65.45
2022-10-24T10:16:37.551Z,64.74
2022-10-24T10:19:19.667Z,64.27
2022-10-24T10:22:04.428Z,64.11
2022-10-24T10:24:39.439Z,64.64
2022-10-24T10:27:38.532Z,64.42
2022-10-24T10:30:18.227Z,64.63
2022-10-24T10:33:24.389Z,64.38
2022-10-24T10:36:05.504Z,64.46
2022-10-24T10:38:41.671Z,64.42
2022-10-24T10:41:51.527Z,64.96
2022-10-24T10:44:33.956Z,64.92
2022-10-24T10:47:35.189Z,63.83
2022-10-24T10:50:15.791Z,63.87
2022-10-24T10:52:49.988Z,64.24
2022-10-24T10:55:21.620Z,63.94
2022-10-24T10:58:18.664Z,63.73
2022-10-24T11:00:47.796Z,63.75
2022-10-24T11:03:30.369Z,62.19
2022-10-24T11:06:00.576Z,62.85
2022-10-24T11:09:02.028Z,62.40
2022-10-24T11:11:32.483Z,62.32
2022-10-24T11:14:06.450Z,62.58
2022-10-24T11:16:35.528Z,62.82
2022-10-24T11:19:22.042Z,61.93
2022-10-24T11:21:50.306Z,62.21
2022-10-24T11:24:21.217Z,61.94
2022-10-24T11:26:54.618Z,61.60
2022-10-24T11:30:03.809Z,61.52
2022-10-24T11:32:50.805Z,60.63
2022-10-24T11:35:40.323Z,60.88
2022-10-24T11:38:16.459Z,61.10
2022-10-24T11:40:46.253Z,61.11
2022-10-24T11:43:19.111Z,60.86
2022-10-24T11:46:11.454Z,60.50
2022-10-24T11:49:00.624Z,60.66
2022-10-24T11:51:33.683Z,59.72
2022-10-24T11:54:04.775Z,60.41
2022-10-24T11:56:43.314Z,60.26
2022-10-24T11:59:20.017Z,60.14
2022-10-24T12:01:59.229Z,59.81
2022-10-24T12:04:39.117Z,59.51
2022-10-24T12:07:54.703Z,59.38
2022-10-24T12:11:01.627Z,59.71
2022-10-24T12:13:56.768Z,59.16
2022-10-24T12:16:42.709Z,59.64
2022-10-24T12:19:16.162Z,59.89
2022-10-24T12:21:51.843Z,60.05
2022-10-24T12:24:38.053Z,60.00
2022-10-24T12:27:08.379Z,59.89
2022-10-24T12:29:36.742Z,59.19
2022-10-24T12:32:24.004Z,59.60
2022-10-24T12:35:30.463Z,59.08
2022-10-24T12:37:58.593Z,59.76
2022-10-24T12:40:45.022Z,59.66
2022-10-24T12:43:43.211Z,59.35
2022-10-24T12:46:21.623Z,60.19
2022-10-24T12:48:59.494Z,59.49
2022-10-24T12:51:33.253Z,59.29
2022-10-24T12:54:02.499Z,59.65
2022-10-24T12:56:31.461Z,59.81
2022-10-24T12:59:02.966Z,60.03
2022-10-24T13:01:34.971Z,59.28
2022-10-24T13:04:25.504Z,59.15
2022-10-24T13:07:02.376Z,59.17
2022-10-24T13:09:55.401Z,59.24
2022-10-24T13:12:36.227Z,59.22
2022-10-24T13:15:16.886Z,59.46
2022-10-24T13:18:03.725Z,59.37
2022-10-24T13:20:37.401Z,59.05
2022-10-24T13:23:23.336Z,59.27
2022-10-24T13:25:58.553Z,59.31
2022-10-24T13:28:27.185Z,59.56
2022-10-24T13:30:54.365Z,59.61
2022-10-24T13:33:44.867Z,59.46
2022-10-24T13:36:17.506Z,59.50
2022-10-24T13:38:46.565Z,59.38
2022-10-24T13:41:21.358Z,59.14
2022-10-24T13:43:49.881Z,59.54
2022-10-24T13:46:28.722Z,59.85
2022-10-24T13:48:57.509Z,59.79
2022-10-24T13:51:32.563Z,59.57
2022-10-24T13:54:04.076Z,59.88
2022-10-24T13:56:36.560Z,60.08
2022-10-24T13:59:03.910Z,60.90
2022-10-24T14:01:31.481Z,60.97
2022-10-24T14:03:59.504Z,60.13
2022-10-24T14:06:29.475Z,60.48
2022-10-24T14:09:06.939Z,60.44
2022-10-24T14:11:39.862Z,60.91
2022-10-24T14:14:18.623Z,60.86
2022-10-24T14:16:46.223Z,60.94
2022-10-24T14:19:29.539Z,60.05
2022-10-24T14:21:59.709Z,59.79
2022-10-24T14:24:27.107Z,60.10
2022-10-24T14:26:56.781Z,60.29
2022-10-24T14:29:32.398Z,60.61
2022-10-24T14:32:02.271Z,60.83
2022-10-24T14:34:35.955Z,60.99
2022-10-24T14:37:09.130Z,61.62
2022-10-24T14:39:37.033Z,61.52
2022-10-24T14:42:04.945Z,61.74
2022-10-24T14:44:35.017Z,61.56
2022-10-24T14:47:15.527Z,61.76
2022-10-24T14:49:42.826Z,61.43
2022-10-24T14:52:15.040Z,61.82
2022-10-24T14:54:44.447Z,61.80
2022-10-24T14:57:18.564Z,62.14
2022-10-24T14:59:46.947Z,62.17
2022-10-24T15:02:21.267Z,61.97
2022-10-24T15:04:50.410Z,62.00
2022-10-24T15:07:29.607Z,61.58
2022-10-24T15:10:01.346Z,61.69
2022-10-24T15:12:53.621Z,61.93
2022-10-24T15:15:23.004Z,61.94
2022-10-24T15:17:51.853Z,61.89
2022-10-24T15:20:22.131Z,62.05
2022-10-24T15:22:51.446Z,61.96
2022-10-24T15:25:31.265Z,61.91
2022-10-24T15:27:59.513Z,61.94
2022-10-24T15:30:36.873Z,62.45
2022-10-24T15:33:06.456Z,62.33
2022-10-24T15:35:36.250Z,62.36
2022-10-24T15:38:17.038Z,62.83
2022-10-24T15:40:47.451Z,62.77
2022-10-24T15:43:18.868Z,62.62
2022-10-24T15:45:46.658Z,62.53
2022-10-24T15:48:14.005Z,62.58
2022-10-24T15:50:44.493Z,62.83
2022-10-24T15:53:20.292Z,62.55
2022-10-24T15:55:47.768Z,62.52
2022-10-24T15:58:16.807Z,62.34
2022-10-24T16:00:44.511Z,62.32
2022-10-24T16:03:16.876Z,62.34
2022-10-24T16:05:47.397Z,62.11
2022-10-24T16:08:18.703Z,61.89
2022-10-24T16:10:48.255Z,62.37
2022-10-24T16:13:16.838Z,62.59
2022-10-24T16:15:44.785Z,62.18
2022-10-24T16:18:12.841Z,62.83
2022-10-24T16:20:40.995Z,62.71
2022-10-24T16:23:08.850Z,62.16
2022-10-24T16:25:37.637Z,62.42
2022-10-24T16:28:07.297Z,62.81
2022-10-24T16:30:38.125Z,62.66
2022-10-24T16:33:05.771Z,62.23
2022-10-24T16:35:35.748Z,61.97
2022-10-24T16:38:04.539Z,62.09
2022-10-24T16:40:32.719Z,62.80
2022-10-24T16:43:00.277Z,62.60
2022-10-24T16:45:27.659Z,62.99
2022-10-24T16:47:55.297Z,63.00
2022-10-24T16:50:26.151Z,63.01
2022-10-24T16:52:55.661Z,63.10
2022-10-24T16:55:23.503Z,62.51
2022-10-24T16:57:50.810Z,62.89
2022-10-24T17:00:22.497Z,63.05
2022-10-24T17:02:51.901Z,62.93
2022-10-24T17:05:22.981Z,62.71
2022-10-24T17:07:50.638Z,63.04
2022-10-24T17:10:20.765Z,63.28
2022-10-24T17:12:52.076Z,62.64
2022-10-24T17:15:22.171Z,62.60
2022-10-24T17:17:50.168Z,62.96
2022-10-24T17:20:17.952Z,63.40
2022-10-24T17:22:46.411Z,62.95
2022-10-24T17:25:23.377Z,62.52
2022-10-24T17:27:51.470Z,62.50
2022-10-24T17:30:24.977Z,62.97
2022-10-24T17:32:52.739Z,63.11
2022-10-24T17:35:22.346Z,63.82
2022-10-24T17:37:55.775Z,63.47
2022-10-24T17:40:25.998Z,63.52
2022-10-24T17:42:53.519Z,63.23
2022-10-24T17:45:23.128Z,63.20
2022-10-24T17:47:51.014Z,63.19
2022-10-24T17:50:18.808Z,63.35
2022-10-24T17:52:50.802Z,63.00
2022-10-24T17:55:41.316Z,62.89
2022-10-24T17:58:09.339Z,62.78
2022-10-24T18:00:37.282Z,62.90
2022-10-24T18:03:05.382Z,62.82
2022-10-24T18:05:37.442Z,62.86
2022-10-24T18:08:06.815Z,62.56
2022-10-24T18:10:34.973Z,62.82
2022-10-24T18:13:02.688Z,62.55
2022-10-24T18:15:30.293Z,62.64
2022-10-24T18:17:57.625Z,62.33
2022-10-24T18:20:24.956Z,62.67
2022-10-24T18:22:52.704Z,62.54
2022-10-24T18:25:22.768Z,62.58
2022-10-24T18:27:50.943Z,62.57
2022-10-24T18:30:19.500Z,62.76
2022-10-24T18:32:47.525Z,62.61
2022-10-24T18:35:15.550Z,62.57
2022-10-24T18:37:43.271Z,62.85
2022-10-24T18:40:11.291Z,62.89
2022-10-24T18:43:04.180Z,62.88
2022-10-24T18:45:32.923Z,62.88
2022-10-24T18:48:00.547Z,63.15
2022-10-24T18:50:28.732Z,63.16
2022-10-24T18:53:08.309Z,63.44
2022-10-24T18:55:35.950Z,63.97
2022-10-24T18:58:03.707Z,64.27
2022-10-24T19:00:32.861Z,64.10
2022-10-24T19:03:21.891Z,64.41
2022-10-24T19:05:59.760Z,64.30
2022-10-24T19:08:27.722Z,64.67
2022-10-24T19:10:56.361Z,64.85
2022-10-24T19:13:25.359Z,64.99
2022-10-24T19:15:56.987Z,64.64
2022-10-24T19:18:25.108Z,64.83
2022-10-24T19:20:52.662Z,65.42
2022-10-24T19:23:20.041Z,65.23
2022-10-24T19:25:47.588Z,64.99
2022-10-24T19:28:16.731Z,64.91
2022-10-24T19:30:45.207Z,64.63
2022-10-24T19:33:13.939Z,64.30
2022-10-24T19:35:46.731Z,64.69
2022-10-24T19:38:18.094Z,64.66
2022-10-24T19:40:51.818Z,64.33
2022-10-24T19:43:23.416Z,64.30
2022-10-24T19:46:07.099Z,64.32
2022-10-24T19:48:37.693Z,64.35
2022-10-24T19:51:12.203Z,64.34
2022-10-24T19:53:42.669Z,64.23
2022-10-24T19:56:20.160Z,64.08
2022-10-24T19:58:50.505Z,64.40
2022-10-24T20:01:20.692Z,64.58
2022-10-24T20:03:49.439Z,64.04
2022-10-24T20:06:17.143Z,64.37
2022-10-24T20:08:48.679Z,64.53
2022-10-24T20:11:16.887Z,64.60
2022-10-24T20:13:44.303Z,64.50
2022-10-24T20:16:11.825Z,64.33
2022-10-24T20:21:16.160Z,64.68
2022-10-24T20:23:45.610Z,64.31
2022-10-24T20:26:22.645Z,64.34
2022-10-24T20:28:51.799Z,64.33
2022-10-24T20:31:27.793Z,64.00
2022-10-24T20:34:05.185Z,64.34
2022-10-24T20:36:44.473Z,64.31
2022-10-24T20:39:12.395Z,64.19
2022-10-24T20:41:40.053Z,64.53
2022-10-24T20:44:07.491Z,64.58
2022-10-24T20:46:35.999Z,64.67
2022-10-24T20:49:03.546Z,64.46
2022-10-24T20:51:30.853Z,64.45
2022-10-24T20:53:58.427Z,64.94
2022-10-24T20:56:26.739Z,64.47
2022-10-24T20:58:56.664Z,64.48
2022-10-24T21:01:26.490Z,64.68
2022-10-24T21:03:55.265Z,64.60
2022-10-24T21:06:31.170Z,64.52
2022-10-24T21:11:34.847Z,64.60
2022-10-24T21:14:07.631Z,64.93
2022-10-24T21:16:35.279Z,64.82
2022-10-24T21:19:03.869Z,64.32
2022-10-24T21:21:31.248Z,64.92
2022-10-24T21:24:04.229Z,64.44
2022-10-24T21:26:40.171Z,64.80
2022-10-24T21:29:20.680Z,64.25
2022-10-24T21:31:55.520Z,64.61
2022-10-24T21:34:23.805Z,64.63
2022-10-24T21:36:51.120Z,64.71
2022-10-24T21:39:18.664Z,64.65
2022-10-24T21:41:45.936Z,64.74
2022-10-24T21:44:14.385Z,64.74
2022-10-24T21:46:42.027Z,64.93
2022-10-24T21:49:09.656Z,64.62
2022-10-24T21:51:39.145Z,64.71
2022-10-24T21:54:21.484Z,65.58
2022-10-24T21:56:48.954Z,66.71
2022-10-24T21:59:18.798Z,65.67
2022-10-24T22:01:47.229Z,65.12
2022-10-24T22:04:15.584Z,65.47
2022-10-24T22:06:43.334Z,65.13
2022-10-24T22:09:13.648Z,65.39
2022-10-24T22:11:42.316Z,65.37
2022-10-24T22:14:10.595Z,65.23
2022-10-24T22:16:38.047Z,65.08
2022-10-24T22:19:06.138Z,64.44
2022-10-24T22:21:44.718Z,63.84
2022-10-24T22:24:18.816Z,64.68
2022-10-24T22:26:47.093Z,65.20
2022-10-24T22:29:16.843Z,64.87
2022-10-24T22:31:44.662Z,64.63
2022-10-24T22:34:17.305Z,64.82
2022-10-24T22:37:02.342Z,65.07
2022-10-24T22:39:29.840Z,65.13
2022-10-24T22:41:57.605Z,64.77
2022-10-24T22:44:25.182Z,64.81
2022-10-24T22:47:17.449Z,65.39
2022-10-24T22:49:59.039Z,64.96
2022-10-24T22:52:26.651Z,65.03
2022-10-24T22:54:54.507Z,64.86
2022-10-24T22:57:22.126Z,65.11
2022-10-24T22:59:49.741Z,65.04
2022-10-24T23:02:28.964Z,64.58
2022-10-24T23:05:29.495Z,65.56
2022-10-24T23:08:03.740Z,65.44
2022-10-24T23:10:31.458Z,64.53
2022-10-24T23:12:59.382Z,65.33
2022-10-24T23:15:27.011Z,65.14
2022-10-24T23:17:54.647Z,64.75
2022-10-24T23:20:54.476Z,65.12
2022-10-24T23:23:29.149Z,65.19
2022-10-24T23:26:03.811Z,64.79
2022-10-24T23:28:38.230Z,64.93
2022-10-24T23:31:06.118Z,64.89
2022-10-24T23:33:33.588Z,65.06
2022-10-24T23:36:01.122Z,65.06
2022-10-24T23:38:28.915Z,64.78
2022-10-24T23:40:56.568Z,64.73
2022-10-24T23:43:24.163Z,64.46
2022-10-24T23:46:00.366Z,64.69
2022-10-24T23:48:59.097Z,64.81
2022-10-24T23:51:47.242Z,65.08
2022-10-24T23:54:15.483Z,65.08
2022-10-24T23:56:43.238Z,65.66
2022-10-24T23:59:10.556Z,65.51
